createdAt,value
2017-06-11T00:04:32.545Z,39.40
2017-06-11T00:06:59.073Z,38.40
2017-06-11T00:09:25.613Z,38.90
2017-06-11T00:11:52.152Z,38.60
2017-06-11T00:14:19.410Z,41.70
2017-06-11T00:16:45.932Z,40.00
2017-06-11T00:24:09.101Z,39.60
2017-06-11T00:26:35.630Z,40.40
2017-06-11T00:29:02.482Z,40.10
2017-06-11T00:31:29.999Z,39.80
2017-06-11T00:38:53.088Z,39.80
2017-06-11T00:41:20.346Z,40.50
2017-06-11T00:43:47.667Z,40.10
2017-06-11T00:46:14.986Z,40.00
2017-06-11T00:48:42.264Z,40.60
2017-06-11T00:53:37.338Z,39.60
2017-06-11T00:56:04.209Z,39.50
2017-06-11T00:58:30.674Z,40.00
2017-06-11T01:00:57.991Z,40.80
2017-06-11T01:08:21.492Z,40.00
2017-06-11T01:10:48.029Z,41.10
2017-06-11T01:13:14.590Z,41.20
2017-06-11T01:15:41.122Z,40.90
2017-06-11T01:18:07.725Z,40.40
2017-06-11T01:20:34.649Z,40.40
2017-06-11T01:27:57.614Z,40.90
2017-06-11T01:30:24.174Z,41.30
2017-06-11T01:32:51.413Z,41.20
2017-06-11T01:35:17.973Z,40.60
2017-06-11T01:37:45.151Z,40.80
2017-06-11T01:42:39.950Z,40.80
2017-06-11T01:45:07.592Z,40.80
2017-06-11T01:47:34.841Z,41.10
2017-06-11T01:50:01.334Z,40.50
2017-06-11T01:52:27.833Z,40.40
2017-06-11T01:54:54.305Z,41.00
2017-06-11T01:59:49.085Z,41.50
2017-06-11T02:04:43.863Z,41.50
2017-06-11T02:07:10.398Z,41.20
2017-06-11T02:09:37.028Z,41.00
2017-06-11T02:14:32.526Z,40.80
2017-06-11T02:16:59.058Z,40.40
2017-06-11T02:19:25.614Z,40.80
2017-06-11T02:21:52.938Z,41.40
2017-06-11T02:24:19.562Z,40.80
2017-06-11T02:26:46.549Z,40.50
2017-06-11T02:34:10.458Z,41.50
2017-06-11T02:36:37.063Z,42.20
2017-06-11T02:39:04.092Z,43.30
2017-06-11T02:41:30.597Z,42.00
2017-06-11T02:46:26.900Z,40.90
2017-06-11T02:48:53.450Z,41.10
2017-06-11T02:51:19.818Z,41.30
2017-06-11T02:53:46.087Z,41.10
2017-06-11T02:56:12.744Z,41.40
2017-06-11T02:58:38.986Z,41.60
2017-06-11T03:06:01.283Z,41.70
2017-06-11T03:08:28.341Z,41.50
2017-06-11T03:10:55.424Z,41.80
2017-06-11T03:15:50.133Z,42.40
2017-06-11T03:20:44.661Z,41.20
2017-06-11T03:23:11.522Z,41.40
2017-06-11T03:25:37.806Z,41.60
2017-06-11T03:30:33.264Z,42.60
2017-06-11T03:33:00.646Z,43.00
2017-06-11T03:37:56.931Z,43.30
2017-06-11T03:40:23.457Z,44.10
2017-06-11T03:42:49.966Z,44.10
2017-06-11T03:45:16.499Z,44.00
2017-06-11T03:52:39.450Z,44.10
2017-06-11T03:55:07.222Z,43.90
2017-06-11T03:57:34.501Z,43.90
2017-06-11T04:02:30.714Z,43.80
2017-06-11T04:07:26.246Z,44.10
2017-06-11T04:09:54.266Z,43.50
2017-06-11T04:12:20.731Z,42.90
2017-06-11T04:14:47.614Z,42.20
2017-06-11T04:17:14.747Z,42.20
2017-06-11T04:22:10.150Z,42.50
2017-06-11T04:24:36.660Z,41.80
2017-06-11T04:27:03.702Z,42.50
2017-06-11T04:29:30.258Z,40.20
2017-06-11T04:31:57.482Z,41.20
2017-06-11T04:34:24.743Z,42.10
2017-06-11T04:39:20.646Z,40.60
2017-06-11T04:41:47.875Z,39.80
2017-06-11T04:44:15.108Z,41.00
2017-06-11T04:46:41.635Z,41.00
2017-06-11T04:49:08.925Z,40.40
2017-06-11T04:56:32.643Z,40.20
2017-06-11T04:58:59.517Z,41.00
2017-06-11T05:01:26.090Z,40.00
2017-06-11T05:03:53.329Z,40.50
2017-06-11T05:06:19.801Z,38.00
2017-06-11T05:11:15.511Z,36.30
2017-06-11T05:13:42.769Z,36.70
2017-06-11T05:16:10.803Z,36.80
2017-06-11T05:18:38.822Z,37.10
2017-06-11T05:26:02.158Z,36.90
2017-06-11T05:30:57.679Z,37.00
2017-06-11T05:33:24.174Z,37.50
2017-06-11T05:35:50.678Z,36.50
2017-06-11T05:43:13.631Z,37.40
2017-06-11T05:45:40.505Z,36.50
2017-06-11T05:48:07.494Z,36.30
2017-06-11T05:50:34.440Z,37.00
2017-06-11T05:58:03.234Z,35.40
2017-06-11T06:00:30.752Z,35.40
2017-06-11T06:02:57.334Z,35.40
2017-06-11T06:05:24.580Z,36.80
2017-06-11T06:10:20.790Z,35.30
2017-06-11T06:12:48.818Z,36.20
2017-06-11T06:25:10.173Z,35.80
2017-06-11T06:27:37.869Z,35.20
2017-06-11T06:32:33.844Z,34.70
2017-06-11T06:39:58.868Z,34.20
2017-06-11T06:42:26.954Z,34.80
2017-06-11T06:44:53.889Z,33.90
2017-06-11T06:47:20.385Z,33.40
2017-06-11T06:52:17.642Z,35.00
2017-06-11T06:54:44.905Z,35.00
2017-06-11T06:57:12.962Z,33.00
2017-06-11T06:59:40.142Z,34.00
2017-06-11T07:02:07.394Z,33.60
2017-06-11T07:09:31.530Z,34.20
2017-06-11T07:11:58.340Z,32.60
2017-06-11T07:14:26.560Z,32.80
2017-06-11T07:16:53.670Z,32.00
2017-06-11T07:21:49.853Z,32.00
2017-06-11T07:24:17.714Z,31.80
2017-06-11T07:26:45.612Z,32.60
2017-06-11T07:31:40.765Z,32.20
2017-06-11T07:39:04.840Z,30.70
2017-06-11T07:41:31.945Z,31.40
2017-06-11T07:43:59.588Z,32.40
2017-06-11T07:46:25.930Z,30.20
2017-06-11T07:51:20.961Z,30.30
2017-06-11T07:53:47.631Z,30.60
2017-06-11T07:56:15.569Z,30.80
2017-06-11T07:58:41.978Z,29.70
2017-06-11T08:01:08.990Z,29.90
2017-06-11T08:03:35.743Z,28.80
2017-06-11T08:10:58.883Z,29.70
2017-06-11T08:13:25.530Z,29.60
2017-06-11T08:15:52.935Z,30.90
2017-06-11T08:18:19.250Z,30.00
2017-06-11T08:25:41.893Z,29.40
2017-06-11T08:30:36.927Z,32.40
2017-06-11T08:40:27.745Z,29.10
2017-06-11T08:42:54.405Z,29.20
2017-06-11T08:45:21.434Z,30.60
2017-06-11T08:47:48.450Z,29.70
2017-06-11T08:50:14.845Z,30.70
2017-06-11T08:55:09.931Z,28.00
2017-06-11T08:57:36.587Z,28.80
2017-06-11T09:00:04.015Z,27.80
2017-06-11T09:02:30.314Z,26.90
2017-06-11T09:04:57.376Z,28.20
2017-06-11T09:12:20.077Z,25.60
2017-06-11T09:14:47.221Z,27.00
2017-06-11T09:17:15.110Z,27.00
2017-06-11T09:19:42.265Z,26.10
2017-06-11T09:27:05.077Z,25.70
2017-06-11T09:29:32.167Z,25.00
2017-06-11T09:31:58.465Z,24.70
2017-06-11T09:34:25.843Z,24.90
2017-06-11T09:36:52.132Z,24.70
2017-06-11T09:39:19.979Z,25.50
2017-06-11T09:44:14.362Z,24.80
2017-06-11T09:46:42.152Z,25.30
2017-06-11T09:51:37.622Z,27.30
2017-06-11T09:54:04.951Z,25.60
2017-06-11T09:58:59.257Z,25.60
2017-06-11T10:01:26.049Z,25.80
2017-06-11T10:03:52.902Z,30.10
2017-06-11T10:06:19.682Z,25.20
2017-06-11T10:08:46.306Z,26.70
2017-06-11T10:11:12.679Z,24.10
2017-06-11T10:18:35.845Z,26.70
2017-06-11T10:21:02.146Z,24.60
2017-06-11T10:23:28.806Z,22.80
2017-06-11T10:25:55.489Z,24.00
2017-06-11T10:28:22.776Z,23.20
2017-06-11T10:33:19.699Z,22.90
2017-06-11T10:35:47.102Z,23.20
2017-06-11T10:38:13.385Z,21.50
2017-06-11T10:40:41.159Z,20.70
2017-06-11T10:43:07.491Z,22.60
2017-06-11T10:50:30.630Z,20.00
2017-06-11T10:52:56.946Z,20.00
2017-06-11T10:55:23.239Z,21.10
2017-06-11T10:57:50.319Z,21.90
2017-06-11T11:00:16.957Z,19.30
2017-06-11T11:05:11.348Z,19.10
2017-06-11T11:07:39.026Z,22.10
2017-06-11T11:10:05.428Z,22.60
2017-06-11T11:12:32.826Z,21.50
2017-06-11T11:14:59.107Z,20.80
2017-06-11T11:17:25.464Z,23.20
2017-06-11T11:22:20.260Z,19.20
2017-06-11T11:24:47.838Z,19.90
2017-06-11T11:27:14.144Z,23.00
2017-06-11T11:29:40.510Z,20.20
2017-06-11T11:32:06.837Z,20.40
2017-06-11T11:34:33.142Z,19.10
2017-06-11T11:39:27.652Z,19.60
2017-06-11T11:41:55.266Z,19.30
2017-06-11T11:44:21.582Z,19.00
2017-06-11T11:46:48.661Z,20.80
2017-06-11T11:49:14.963Z,19.10
2017-06-11T11:51:41.431Z,17.80
2017-06-11T11:56:36.519Z,20.20
2017-06-11T11:59:02.853Z,18.90
2017-06-11T12:03:57.158Z,19.60
2017-06-11T12:06:23.545Z,18.30
2017-06-11T12:08:50.877Z,19.70
2017-06-11T12:13:45.194Z,19.70
2017-06-11T12:16:11.887Z,19.00
2017-06-11T12:18:38.191Z,20.50
2017-06-11T12:21:04.720Z,19.60
2017-06-11T12:30:56.834Z,19.70
2017-06-11T12:33:23.830Z,19.00
2017-06-11T12:35:50.189Z,19.20
2017-06-11T12:38:16.487Z,19.10
2017-06-11T12:40:43.132Z,20.80
2017-06-11T12:45:38.873Z,20.30
2017-06-11T12:48:06.064Z,20.50
2017-06-11T12:50:33.132Z,21.50
2017-06-11T12:52:59.797Z,21.50
2017-06-11T12:55:26.145Z,21.90
2017-06-11T12:57:55.273Z,21.10
2017-06-11T13:02:50.011Z,22.10
2017-06-11T13:05:16.758Z,22.20
2017-06-11T13:07:43.878Z,23.30
2017-06-11T13:10:10.465Z,22.30
2017-06-11T13:17:32.960Z,22.40
2017-06-11T13:19:59.699Z,22.20
2017-06-11T13:22:25.966Z,21.10
2017-06-11T13:24:52.247Z,21.60
2017-06-11T13:27:18.519Z,22.20
2017-06-11T13:29:44.778Z,22.20
2017-06-11T13:37:07.251Z,23.60
2017-06-11T13:39:33.591Z,22.50
2017-06-11T13:41:59.903Z,23.10
2017-06-11T13:44:27.302Z,23.40
2017-06-11T13:46:53.654Z,22.90
2017-06-11T13:51:47.982Z,23.80
2017-06-11T13:54:14.650Z,23.30
2017-06-11T13:56:41.433Z,22.10
2017-06-11T13:59:07.786Z,22.40
2017-06-11T14:01:34.814Z,22.10
2017-06-11T14:04:01.442Z,22.70
2017-06-11T14:08:57.674Z,23.00
2017-06-11T14:11:24.692Z,22.00
2017-06-11T14:13:53.217Z,22.30
2017-06-11T14:16:20.594Z,22.80
2017-06-11T14:18:46.852Z,22.50
2017-06-11T14:23:42.298Z,23.30
2017-06-11T14:26:08.623Z,24.00
2017-06-11T14:28:34.878Z,23.10
2017-06-11T14:31:04.285Z,23.50
2017-06-11T14:35:58.967Z,22.70
2017-06-11T14:43:21.306Z,23.30
2017-06-11T14:45:49.067Z,23.10
2017-06-11T14:48:15.421Z,23.90
2017-06-11T15:05:30.658Z,24.60
2017-06-11T15:10:25.057Z,24.70
2017-06-11T15:17:48.221Z,25.10
2017-06-11T15:30:07.960Z,26.50
2017-06-11T15:35:03.450Z,26.40
2017-06-11T15:39:58.573Z,27.60
2017-06-11T15:42:25.098Z,28.00
2017-06-11T15:44:51.649Z,27.80
2017-06-11T15:47:18.145Z,27.90
2017-06-11T15:49:45.365Z,28.00
2017-06-11T15:59:36.569Z,27.30
2017-06-11T16:02:03.554Z,26.80
2017-06-11T16:04:31.282Z,27.40
2017-06-11T16:06:58.167Z,26.60
2017-06-11T16:14:37.211Z,27.00
2017-06-11T16:24:28.870Z,27.40
2017-06-11T16:26:55.869Z,27.30
2017-06-11T16:29:22.451Z,26.60
2017-06-11T16:36:45.771Z,27.10
2017-06-11T16:39:13.147Z,27.40
2017-06-11T16:41:39.687Z,27.30
2017-06-11T16:44:07.680Z,26.40
2017-06-11T16:51:33.443Z,26.80
2017-06-11T16:54:01.194Z,27.50
2017-06-11T16:56:28.121Z,27.20
2017-06-11T17:03:52.083Z,27.60
2017-06-11T17:06:19.345Z,28.00
2017-06-11T17:08:47.307Z,29.50
2017-06-11T17:11:13.857Z,30.10
2017-06-11T17:13:40.353Z,30.10
2017-06-11T17:18:36.285Z,29.50
2017-06-11T17:21:03.536Z,30.00
2017-06-11T17:28:43.649Z,31.90
2017-06-11T17:31:17.590Z,32.00
2017-06-11T17:33:45.406Z,31.80
2017-06-11T17:41:08.928Z,32.60
2017-06-11T17:46:04.204Z,32.50
2017-06-11T17:50:58.986Z,31.60
2017-06-11T17:55:54.478Z,32.50
2017-06-11T17:58:21.769Z,32.40
2017-06-11T18:03:16.693Z,33.20
2017-06-11T18:10:40.644Z,32.40
2017-06-11T18:13:07.707Z,33.10
2017-06-11T18:15:34.530Z,32.90
2017-06-11T18:18:01.477Z,32.90
2017-06-11T18:20:27.999Z,33.10
2017-06-11T18:25:27.278Z,32.70
2017-06-11T18:30:21.602Z,32.80
2017-06-11T18:35:15.911Z,33.50
2017-06-11T18:40:11.337Z,34.30
2017-06-11T18:47:35.143Z,34.70
2017-06-11T18:50:02.198Z,34.70
2017-06-11T18:54:57.303Z,35.50
2017-06-11T18:57:23.624Z,35.80
2017-06-11T18:59:50.281Z,36.00
2017-06-11T19:04:45.022Z,36.90
2017-06-11T19:07:11.348Z,36.40
2017-06-11T19:12:05.758Z,37.30
2017-06-11T19:14:33.123Z,37.30
2017-06-11T19:16:59.442Z,37.30
2017-06-11T19:21:54.933Z,38.00
2017-06-11T19:29:17.267Z,37.90
2017-06-11T19:31:43.891Z,38.00
2017-06-11T19:34:11.412Z,37.90
2017-06-11T19:39:05.928Z,37.90
2017-06-11T19:44:00.579Z,38.00
2017-06-11T19:46:27.955Z,39.30
2017-06-11T19:48:55.314Z,37.90
2017-06-11T19:51:22.333Z,37.90
2017-06-11T19:53:50.068Z,37.50
2017-06-11T20:03:42.001Z,40.60
2017-06-11T20:06:09.495Z,40.50
2017-06-11T20:15:59.933Z,43.30
2017-06-11T20:33:15.043Z,43.10
2017-06-11T20:43:07.417Z,43.30
2017-06-11T20:45:33.734Z,43.20
2017-06-11T20:48:00.763Z,42.90
2017-06-11T20:50:28.139Z,43.20
2017-06-11T20:52:54.781Z,43.70
2017-06-11T21:02:46.065Z,43.90
2017-06-11T21:05:13.565Z,44.00
2017-06-11T21:12:36.266Z,43.90
2017-06-11T21:15:02.921Z,43.90
2017-06-11T21:19:58.293Z,43.20
2017-06-11T21:22:24.580Z,43.90
2017-06-11T21:32:15.292Z,44.10
2017-06-11T21:39:38.330Z,44.80
2017-06-11T21:44:33.453Z,44.10
2017-06-11T21:47:00.337Z,45.20
2017-06-11T21:49:27.573Z,44.10
2017-06-11T21:51:54.794Z,44.60
2017-06-11T21:54:22.045Z,45.30
2017-06-11T22:01:45.782Z,45.00
2017-06-11T22:04:13.373Z,45.00
2017-06-11T22:06:40.256Z,45.10
2017-06-11T22:09:07.856Z,45.30
2017-06-11T22:19:01.166Z,45.30
2017-06-11T22:21:27.653Z,44.80
2017-06-11T22:28:51.681Z,44.60
2017-06-11T22:31:18.226Z,45.80
2017-06-11T22:33:45.444Z,45.30
2017-06-11T22:36:11.905Z,45.50
2017-06-11T22:46:03.497Z,44.80
2017-06-11T22:48:30.705Z,42.80
2017-06-11T22:50:57.240Z,40.40
2017-06-11T22:53:23.709Z,39.30
2017-06-11T22:55:50.549Z,39.40
2017-06-11T23:00:46.767Z,39.00
2017-06-11T23:03:13.270Z,37.70
2017-06-11T23:05:39.761Z,37.50
2017-06-11T23:08:06.998Z,37.00
2017-06-11T23:10:33.909Z,36.60
2017-06-11T23:17:56.814Z,36.80
2017-06-11T23:20:23.914Z,36.80
2017-06-11T23:22:50.421Z,36.60
2017-06-11T23:25:16.886Z,35.70
2017-06-11T23:27:43.735Z,35.20
2017-06-11T23:35:07.778Z,33.90
2017-06-11T23:37:34.638Z,34.40
2017-06-11T23:40:01.142Z,34.80
2017-06-11T23:42:27.650Z,35.70
2017-06-11T23:44:54.510Z,35.70
2017-06-11T23:49:49.950Z,36.10
2017-06-11T23:52:16.446Z,36.20
2017-06-11T23:54:43.660Z,35.80
2017-06-11T23:57:10.132Z,35.10
2017-06-11T23:59:38.360Z,35.50
